createdAt,value
2022-12-08T00:01:32.594Z,2.53
2022-12-08T00:04:02.397Z,2.47
2022-12-08T00:06:54.407Z,2.47
2022-12-08T00:09:33.402Z,2.37
2022-12-08T00:12:13.589Z,2.35
2022-12-08T00:14:42.713Z,2.24
2022-12-08T00:17:11.892Z,2.17
2022-12-08T00:19:40.880Z,2.03
2022-12-08T00:22:10.390Z,1.67
2022-12-08T00:24:39.840Z,1.87
2022-12-08T00:27:09.708Z,1.78
2022-12-08T00:29:37.808Z,1.91
2022-12-08T00:32:07.004Z,2.20
2022-12-08T00:34:34.712Z,2.07
2022-12-08T00:37:02.226Z,2.23
2022-12-08T00:39:29.706Z,2.35
2022-12-08T00:42:12.151Z,2.44
2022-12-08T00:44:44.089Z,2.47
2022-12-08T00:47:12.759Z,2.44
2022-12-08T00:49:40.449Z,2.48
2022-12-08T00:52:08.043Z,2.42
2022-12-08T00:54:35.536Z,2.56
2022-12-08T00:57:03.212Z,2.38
2022-12-08T00:59:30.681Z,2.51
2022-12-08T01:01:58.356Z,2.65
2022-12-08T01:04:26.259Z,2.65
2022-12-08T01:06:53.975Z,2.45
2022-12-08T01:09:21.487Z,2.38
2022-12-08T01:11:49.157Z,2.33
2022-12-08T01:14:16.822Z,2.42
2022-12-08T01:16:44.449Z,2.59
2022-12-08T01:19:14.635Z,2.53
2022-12-08T01:21:43.723Z,2.53
2022-12-08T01:24:19.413Z,2.38
2022-12-08T01:26:48.074Z,2.40
2022-12-08T01:29:15.916Z,2.24
2022-12-08T01:31:43.445Z,2.31
2022-12-08T01:34:11.551Z,2.06
2022-12-08T01:36:39.404Z,2.14
2022-12-08T01:39:10.940Z,2.15
2022-12-08T01:41:38.674Z,2.35
2022-12-08T01:44:09.015Z,1.72
2022-12-08T01:46:48.608Z,1.52
2022-12-08T01:49:18.409Z,1.52
2022-12-08T01:51:57.291Z,1.83
2022-12-08T01:54:28.185Z,1.71
2022-12-08T01:57:03.559Z,1.70
2022-12-08T01:59:35.218Z,1.63
2022-12-08T02:02:02.945Z,1.70
2022-12-08T02:04:30.602Z,1.66
2022-12-08T02:07:01.430Z,1.71
2022-12-08T02:09:31.268Z,1.79
2022-12-08T02:11:59.944Z,1.57
2022-12-08T02:14:27.572Z,1.71
2022-12-08T02:17:03.927Z,1.70
2022-12-08T02:20:05.467Z,1.39
2022-12-08T02:22:40.618Z,1.01
2022-12-08T02:25:19.812Z,1.12
2022-12-08T02:28:07.862Z,1.02
2022-12-08T02:30:53.814Z,0.94
2022-12-08T02:33:51.175Z,0.95
2022-12-08T02:36:41.817Z,0.83
2022-12-08T02:39:23.443Z,1.29
2022-12-08T02:42:11.558Z,1.31
2022-12-08T02:44:45.849Z,1.30
2022-12-08T02:47:18.265Z,1.04
2022-12-08T02:49:46.205Z,1.14
2022-12-08T02:52:13.708Z,1.28
2022-12-08T02:54:46.602Z,1.32
2022-12-08T02:57:33.018Z,1.34
2022-12-08T03:00:03.766Z,1.31
2022-12-08T03:02:43.975Z,1.34
2022-12-08T03:05:29.493Z,1.20
2022-12-08T03:08:26.106Z,0.83
2022-12-08T03:11:01.750Z,1.00
2022-12-08T03:13:54.663Z,0.72
2022-12-08T03:16:28.262Z,1.02
2022-12-08T03:19:21.133Z,1.36
2022-12-08T03:22:00.461Z,1.36
2022-12-08T03:24:28.624Z,1.24
2022-12-08T03:27:21.055Z,1.23
2022-12-08T03:29:50.922Z,0.95
2022-12-08T03:32:44.413Z,0.94
2022-12-08T03:35:17.590Z,0.72
2022-12-08T03:37:45.032Z,0.56
2022-12-08T03:40:16.552Z,0.71
2022-12-08T03:42:44.190Z,0.83
2022-12-08T03:45:12.071Z,0.96
2022-12-08T03:47:39.865Z,0.97
2022-12-08T03:50:07.895Z,1.00
2022-12-08T03:52:35.475Z,0.75
2022-12-08T03:55:03.656Z,0.99
2022-12-08T03:57:31.063Z,1.16
2022-12-08T03:59:58.594Z,1.01
2022-12-08T04:02:26.263Z,1.02
2022-12-08T04:04:53.784Z,0.90
2022-12-08T04:07:21.281Z,0.91
2022-12-08T04:09:48.781Z,0.97
2022-12-08T04:12:16.320Z,1.04
2022-12-08T04:14:43.816Z,0.80
2022-12-08T04:17:11.377Z,0.91
2022-12-08T04:19:40.986Z,0.97
2022-12-08T04:22:08.477Z,0.74
2022-12-08T04:24:35.929Z,0.56
2022-12-08T04:27:03.633Z,0.88
2022-12-08T04:29:31.191Z,0.77
2022-12-08T04:31:58.908Z,0.82
2022-12-08T04:34:26.553Z,0.71
2022-12-08T04:36:54.025Z,0.63
2022-12-08T04:39:21.517Z,0.68
2022-12-08T04:41:48.968Z,0.65
2022-12-08T04:44:16.415Z,0.73
2022-12-08T04:46:44.062Z,0.78
2022-12-08T04:49:11.688Z,0.88
2022-12-08T04:51:39.290Z,0.76
2022-12-08T04:54:06.767Z,0.34
2022-12-08T04:56:34.295Z,0.60
2022-12-08T04:59:01.836Z,0.91
2022-12-08T05:01:29.383Z,0.80
2022-12-08T05:03:57.083Z,0.83
2022-12-08T05:06:24.586Z,0.85
2022-12-08T05:08:52.056Z,0.79
2022-12-08T05:11:19.795Z,0.63
2022-12-08T05:13:47.688Z,0.61
2022-12-08T05:16:15.854Z,0.70
2022-12-08T05:18:43.405Z,0.73
2022-12-08T05:21:11.320Z,0.76
2022-12-08T05:23:38.927Z,0.94
2022-12-08T05:26:06.387Z,0.94
2022-12-08T05:28:42.953Z,0.63
2022-12-08T05:31:14.073Z,0.79
2022-12-08T05:33:42.280Z,0.78
2022-12-08T05:36:12.025Z,1.01
2022-12-08T05:38:41.067Z,0.95
2022-12-08T05:41:09.899Z,0.97
2022-12-08T05:43:37.359Z,1.15
2022-12-08T05:46:05.478Z,1.29
2022-12-08T05:48:33.105Z,1.26
2022-12-08T05:51:01.370Z,1.79
2022-12-08T05:53:28.918Z,1.36
2022-12-08T05:55:56.513Z,1.36
2022-12-08T05:58:24.066Z,1.43
2022-12-08T06:00:51.685Z,1.34
2022-12-08T06:03:20.061Z,1.53
2022-12-08T06:05:48.154Z,1.52
2022-12-08T06:08:15.751Z,1.43
2022-12-08T06:10:45.576Z,1.21
2022-12-08T06:13:14.214Z,1.24
2022-12-08T06:15:42.309Z,0.57
2022-12-08T06:18:10.876Z,0.84
2022-12-08T06:20:38.587Z,0.74
2022-12-08T06:23:05.956Z,0.69
2022-12-08T06:25:33.603Z,0.84
2022-12-08T06:28:01.284Z,1.02
2022-12-08T06:30:28.969Z,1.09
2022-12-08T06:32:56.498Z,0.97
2022-12-08T06:35:24.029Z,1.12
2022-12-08T06:37:51.788Z,1.01
2022-12-08T06:40:20.044Z,1.01
2022-12-08T06:42:47.706Z,1.01
2022-12-08T06:45:17.732Z,0.81
2022-12-08T06:47:45.527Z,0.75
2022-12-08T06:50:14.231Z,1.18
2022-12-08T06:52:54.142Z,1.48
2022-12-08T06:55:57.427Z,1.51
2022-12-08T06:58:14.435Z,1.24
2022-12-08T07:00:42.236Z,1.33
2022-12-08T07:03:10.766Z,1.43
2022-12-08T07:05:38.954Z,1.48
2022-12-08T07:08:08.439Z,1.50
2022-12-08T07:10:36.435Z,1.12
2022-12-08T07:13:03.931Z,1.04
2022-12-08T07:15:31.464Z,1.07
2022-12-08T07:18:00.268Z,1.17
2022-12-08T07:20:28.334Z,1.09
2022-12-08T07:22:56.134Z,1.45
2022-12-08T07:25:23.688Z,1.61
2022-12-08T07:27:52.732Z,1.71
2022-12-08T07:30:20.282Z,1.70
2022-12-08T07:32:47.885Z,1.54
2022-12-08T07:35:15.457Z,1.66
2022-12-08T07:37:43.215Z,1.68
2022-12-08T07:40:11.317Z,1.59
2022-12-08T07:42:38.921Z,1.81
2022-12-08T07:45:06.992Z,2.01
2022-12-08T07:47:34.518Z,2.07
2022-12-08T07:50:02.291Z,2.27
2022-12-08T07:52:29.916Z,2.31
2022-12-08T07:54:57.469Z,2.57
2022-12-08T07:57:24.892Z,2.50
2022-12-08T07:59:52.380Z,2.55
2022-12-08T08:02:25.217Z,2.42
2022-12-08T08:04:53.986Z,1.38
2022-12-08T08:07:21.621Z,1.50
2022-12-08T08:09:49.005Z,1.68
2022-12-08T08:12:31.433Z,2.02
2022-12-08T08:15:00.596Z,1.88
2022-12-08T08:17:29.000Z,1.93
2022-12-08T08:19:56.764Z,2.18
2022-12-08T08:22:25.678Z,2.03
2022-12-08T08:24:54.221Z,2.20
2022-12-08T08:27:22.618Z,2.32
2022-12-08T08:29:50.128Z,2.49
2022-12-08T08:32:17.622Z,2.90
2022-12-08T08:34:45.134Z,2.87
2022-12-08T08:37:12.750Z,2.45
2022-12-08T08:39:40.339Z,2.96
2022-12-08T08:42:07.813Z,3.14
2022-12-08T08:44:35.674Z,3.36
2022-12-08T08:47:03.146Z,3.10
2022-12-08T08:49:30.670Z,4.09
2022-12-08T08:51:58.318Z,5.42
2022-12-08T08:54:25.805Z,6.47
2022-12-08T08:56:53.353Z,7.36
2022-12-08T08:59:20.824Z,7.55
2022-12-08T09:01:48.341Z,6.89
2022-12-08T09:04:15.913Z,6.67
2022-12-08T09:06:45.203Z,7.26
2022-12-08T09:09:12.780Z,6.78
2022-12-08T09:11:40.688Z,6.26
2022-12-08T09:14:10.146Z,5.56
2022-12-08T09:16:41.914Z,5.33
2022-12-08T09:19:10.135Z,4.63
2022-12-08T09:21:37.592Z,5.05
2022-12-08T09:24:05.258Z,5.50
2022-12-08T09:26:32.708Z,5.19
2022-12-08T09:29:00.111Z,5.30
2022-12-08T09:31:27.651Z,5.16
2022-12-08T09:33:55.193Z,5.15
2022-12-08T09:36:23.353Z,5.42
2022-12-08T09:38:53.531Z,5.12
2022-12-08T09:41:48.605Z,5.21
2022-12-08T09:44:38.928Z,5.36
2022-12-08T09:47:16.244Z,5.25
2022-12-08T09:50:17.378Z,4.98
2022-12-08T09:52:50.646Z,5.01
2022-12-08T09:55:25.231Z,4.99
2022-12-08T09:58:02.551Z,4.79
2022-12-08T10:00:30.082Z,5.16
2022-12-08T10:02:57.699Z,5.41
2022-12-08T10:05:27.869Z,5.69
2022-12-08T10:08:12.347Z,5.90
2022-12-08T10:10:46.991Z,5.93
2022-12-08T10:13:26.455Z,5.98
2022-12-08T10:16:38.660Z,5.62
2022-12-08T10:19:18.762Z,5.77
2022-12-08T10:21:46.655Z,5.27
2022-12-08T10:24:32.354Z,5.63
2022-12-08T10:27:01.618Z,5.86
2022-12-08T10:29:29.056Z,5.56
2022-12-08T10:31:59.568Z,5.85
2022-12-08T10:34:27.136Z,5.70
2022-12-08T10:37:00.675Z,5.98
2022-12-08T10:39:36.401Z,6.13
2022-12-08T10:42:22.121Z,6.16
2022-12-08T10:44:54.156Z,6.33
2022-12-08T10:47:23.778Z,6.70
2022-12-08T10:50:45.128Z,7.05
2022-12-08T10:53:14.668Z,6.73
2022-12-08T10:56:05.056Z,6.57
2022-12-08T10:58:36.695Z,7.05
2022-12-08T11:01:26.672Z,7.34
2022-12-08T11:04:03.064Z,7.52
2022-12-08T11:06:30.435Z,7.22
2022-12-08T11:09:00.678Z,7.50
2022-12-08T11:11:58.750Z,7.51
2022-12-08T11:14:32.355Z,7.10
2022-12-08T11:17:08.625Z,7.12
2022-12-08T11:19:45.325Z,7.23
2022-12-08T11:22:32.195Z,7.23
2022-12-08T11:25:12.909Z,7.16
2022-12-08T11:27:44.418Z,7.47
2022-12-08T11:30:26.037Z,7.23
2022-12-08T11:32:57.399Z,7.23
2022-12-08T11:35:32.675Z,6.96
2022-12-08T11:38:22.380Z,6.92
2022-12-08T11:40:55.373Z,6.67
2022-12-08T11:43:34.608Z,7.01
2022-12-08T11:46:25.056Z,7.25
2022-12-08T11:49:06.204Z,7.23
2022-12-08T11:51:44.065Z,7.35
2022-12-08T11:54:17.840Z,7.57
2022-12-08T11:56:52.962Z,7.89
2022-12-08T11:59:28.838Z,8.17
2022-12-08T12:02:00.162Z,7.97
2022-12-08T12:04:38.396Z,8.12
2022-12-08T12:07:39.880Z,8.35
2022-12-08T12:10:25.332Z,8.29
2022-12-08T12:13:07.894Z,8.20
2022-12-08T12:16:10.929Z,8.25
2022-12-08T12:18:46.427Z,8.45
2022-12-08T12:21:20.441Z,8.18
2022-12-08T12:23:58.938Z,8.30
2022-12-08T12:26:30.014Z,8.76
2022-12-08T12:29:04.189Z,8.71
2022-12-08T12:31:38.614Z,8.64
2022-12-08T12:34:17.368Z,8.49
2022-12-08T12:36:58.505Z,8.41
2022-12-08T12:39:30.996Z,8.65
2022-12-08T12:42:00.816Z,8.59
2022-12-08T12:44:28.231Z,8.52
2022-12-08T12:46:58.546Z,8.56
2022-12-08T12:49:37.965Z,8.42
2022-12-08T12:52:31.209Z,8.43
2022-12-08T12:54:58.515Z,8.49
2022-12-08T12:57:36.746Z,8.65
2022-12-08T13:00:04.072Z,8.59
2022-12-08T13:02:46.142Z,8.66
2022-12-08T13:05:13.485Z,8.57
2022-12-08T13:07:50.376Z,8.35
2022-12-08T13:10:34.404Z,8.29
2022-12-08T13:13:06.198Z,8.21
2022-12-08T13:15:47.004Z,8.45
2022-12-08T13:18:40.117Z,8.45
2022-12-08T13:21:10.367Z,8.37
2022-12-08T13:23:38.034Z,8.50
2022-12-08T13:26:13.514Z,8.35
2022-12-08T13:28:58.966Z,8.41
2022-12-08T13:31:35.321Z,8.17
2022-12-08T13:34:25.396Z,8.37
2022-12-08T13:37:06.948Z,8.26
2022-12-08T13:39:46.769Z,8.25
2022-12-08T13:42:14.247Z,8.32
2022-12-08T13:45:19.851Z,8.39
2022-12-08T13:48:05.921Z,8.47
2022-12-08T13:59:25.516Z,8.35
2022-12-08T14:01:55.729Z,7.94
2022-12-08T14:07:12.543Z,8.32
2022-12-08T14:09:41.787Z,8.48
2022-12-08T14:12:20.375Z,8.39
2022-12-08T14:15:03.325Z,8.49
2022-12-08T14:17:32.291Z,8.31
2022-12-08T14:20:01.000Z,8.16
2022-12-08T14:22:37.476Z,8.11
2022-12-08T14:25:07.132Z,8.14
2022-12-08T14:27:37.496Z,8.06
2022-12-08T14:30:14.055Z,7.92
2022-12-08T14:32:54.460Z,7.78
2022-12-08T14:35:36.832Z,7.59
2022-12-08T14:38:14.890Z,7.60
2022-12-08T14:40:45.163Z,7.56
2022-12-08T14:43:19.502Z,7.69
2022-12-08T14:45:49.016Z,7.74
2022-12-08T14:48:28.182Z,7.97
2022-12-08T14:51:03.312Z,7.78
2022-12-08T14:53:46.438Z,7.65
2022-12-08T14:56:54.868Z,7.39
2022-12-08T14:59:27.448Z,7.28
2022-12-08T15:02:25.690Z,7.23
2022-12-08T15:05:12.461Z,7.19
2022-12-08T15:07:54.761Z,7.10
2022-12-08T15:10:29.649Z,7.08
2022-12-08T15:13:03.558Z,6.98
2022-12-08T15:15:32.789Z,6.90
2022-12-08T15:18:11.320Z,6.96
2022-12-08T15:20:38.728Z,7.13
2022-12-08T15:23:17.585Z,7.02
2022-12-08T15:25:45.055Z,6.97
2022-12-08T15:28:18.352Z,6.94
2022-12-08T15:30:46.475Z,6.68
2022-12-08T15:33:14.554Z,6.74
2022-12-08T15:35:42.323Z,6.53
2022-12-08T15:38:36.335Z,6.45
2022-12-08T15:41:07.988Z,6.35
2022-12-08T15:43:37.579Z,6.43
2022-12-08T15:46:05.249Z,6.34
2022-12-08T15:48:32.687Z,6.36
2022-12-08T15:51:00.129Z,6.32
2022-12-08T15:53:27.878Z,6.34
2022-12-08T15:56:26.399Z,6.30
2022-12-08T15:58:58.800Z,6.17
2022-12-08T16:01:26.957Z,5.88
2022-12-08T16:04:47.271Z,5.84
2022-12-08T16:09:42.263Z,5.87
2022-12-08T16:15:55.093Z,5.85
2022-12-08T16:18:25.003Z,5.92
2022-12-08T16:21:16.908Z,5.86
2022-12-08T16:23:43.578Z,6.02
2022-12-08T16:27:00.967Z,6.05
2022-12-08T16:29:08.733Z,5.99
2022-12-08T16:31:36.454Z,6.03
2022-12-08T16:34:03.926Z,6.03
2022-12-08T16:36:31.396Z,6.11
2022-12-08T16:38:58.786Z,5.87
2022-12-08T16:41:45.110Z,5.90
2022-12-08T16:44:12.591Z,5.85
2022-12-08T16:46:40.247Z,5.74
2022-12-08T16:49:09.800Z,5.56
2022-12-08T16:51:37.431Z,5.59
2022-12-08T16:54:05.029Z,5.59
2022-12-08T16:56:33.656Z,5.85
2022-12-08T16:59:02.404Z,5.31
2022-12-08T17:01:30.271Z,5.29
2022-12-08T17:06:45.367Z,5.51
2022-12-08T17:09:12.826Z,5.52
2022-12-08T17:11:43.310Z,5.57
2022-12-08T17:14:15.066Z,5.49
2022-12-08T17:16:43.737Z,5.60
2022-12-08T17:19:13.441Z,5.79
2022-12-08T17:21:41.381Z,5.96
2022-12-08T17:24:08.785Z,6.00
2022-12-08T17:26:36.675Z,5.91
2022-12-08T17:29:04.546Z,6.01
2022-12-08T17:31:33.126Z,6.02
2022-12-08T17:34:02.336Z,5.96
2022-12-08T17:36:30.043Z,6.02
2022-12-08T17:38:59.475Z,6.08
2022-12-08T17:41:27.295Z,5.90
2022-12-08T17:43:55.020Z,5.63
2022-12-08T17:46:22.917Z,5.91
2022-12-08T17:48:50.702Z,6.05
2022-12-08T17:51:18.565Z,6.10
2022-12-08T17:53:46.034Z,6.02
2022-12-08T17:56:20.632Z,6.09
2022-12-08T17:58:54.007Z,6.21
2022-12-08T18:01:23.719Z,6.33
2022-12-08T18:03:51.614Z,6.17
2022-12-08T18:06:19.279Z,6.32
2022-12-08T18:08:46.782Z,5.96
2022-12-08T18:11:17.102Z,6.26
2022-12-08T18:13:46.014Z,6.31
2022-12-08T18:16:14.318Z,6.32
2022-12-08T18:18:42.319Z,6.24
2022-12-08T18:21:10.205Z,6.35
2022-12-08T18:23:38.814Z,6.33
2022-12-08T18:26:07.476Z,6.25
2022-12-08T18:28:35.442Z,6.21
2022-12-08T18:31:07.373Z,6.36
2022-12-08T18:33:35.191Z,6.29
2022-12-08T18:36:08.257Z,6.31
2022-12-08T18:38:38.880Z,6.33
2022-12-08T18:41:08.848Z,6.47
2022-12-08T18:43:37.258Z,6.56
2022-12-08T18:46:10.112Z,6.35
2022-12-08T18:48:40.409Z,6.05
2022-12-08T18:51:12.589Z,5.88
2022-12-08T18:53:40.434Z,5.90
2022-12-08T18:56:08.816Z,6.03
2022-12-08T18:58:36.214Z,6.01
2022-12-08T19:01:03.957Z,5.59
2022-12-08T19:03:31.483Z,5.66
2022-12-08T19:06:03.676Z,5.91
2022-12-08T19:08:31.779Z,6.09
2022-12-08T19:10:59.952Z,5.99
2022-12-08T19:13:27.559Z,5.92
2022-12-08T19:15:54.996Z,5.79
2022-12-08T19:18:22.935Z,5.59
2022-12-08T19:20:50.378Z,5.39
2022-12-08T19:23:18.060Z,5.77
2022-12-08T19:25:45.837Z,5.90
2022-12-08T19:28:13.251Z,5.38
2022-12-08T19:30:40.741Z,5.67
2022-12-08T19:33:08.523Z,6.00
2022-12-08T19:35:36.569Z,6.09
2022-12-08T19:38:07.239Z,6.28
2022-12-08T19:40:53.510Z,6.18
2022-12-08T19:43:40.774Z,5.83
2022-12-08T19:46:08.751Z,5.89
2022-12-08T19:48:36.355Z,6.25
2022-12-08T19:51:04.720Z,6.31
2022-12-08T19:53:32.275Z,6.41
2022-12-08T19:55:59.836Z,6.41
2022-12-08T19:58:27.302Z,6.49
2022-12-08T20:00:55.574Z,6.40
2022-12-08T20:03:23.175Z,6.30
2022-12-08T20:05:53.384Z,6.36
2022-12-08T20:08:20.893Z,6.51
2022-12-08T20:10:48.345Z,6.53
2022-12-08T20:13:34.907Z,6.48
2022-12-08T20:16:02.460Z,6.30
2022-12-08T20:18:30.303Z,6.45
2022-12-08T20:20:57.726Z,6.55
2022-12-08T20:23:25.301Z,6.17
2022-12-08T20:25:52.812Z,5.96
2022-12-08T20:28:20.709Z,6.34
2022-12-08T20:30:49.178Z,6.38
2022-12-08T20:33:18.533Z,6.52
2022-12-08T20:35:46.603Z,6.37
2022-12-08T20:38:14.281Z,6.53
2022-12-08T20:40:44.009Z,6.04
2022-12-08T20:43:11.663Z,5.95
2022-12-08T20:45:39.540Z,6.29
2022-12-08T20:48:07.301Z,6.35
2022-12-08T20:50:35.229Z,5.92
2022-12-08T20:53:03.048Z,5.76
2022-12-08T20:55:30.630Z,5.89
2022-12-08T20:57:58.254Z,6.03
2022-12-08T21:00:27.292Z,6.41
2022-12-08T21:02:56.832Z,6.01
2022-12-08T21:05:24.983Z,6.18
2022-12-08T21:07:52.778Z,6.33
2022-12-08T21:10:20.462Z,6.32
2022-12-08T21:12:48.214Z,6.49
2022-12-08T21:15:15.843Z,6.34
2022-12-08T21:17:43.506Z,6.11
2022-12-08T21:20:11.506Z,6.10
2022-12-08T21:22:40.283Z,6.38
2022-12-08T21:25:08.618Z,6.33
2022-12-08T21:27:38.094Z,6.61
2022-12-08T21:30:07.686Z,6.67
2022-12-08T21:32:37.484Z,6.82
2022-12-08T21:35:06.711Z,6.72
2022-12-08T21:37:34.420Z,6.70
2022-12-08T21:40:02.133Z,6.73
2022-12-08T21:42:44.695Z,6.67
2022-12-08T21:45:16.273Z,6.65
2022-12-08T21:47:44.764Z,6.72
2022-12-08T21:50:13.325Z,6.91
2022-12-08T21:52:43.392Z,7.09
2022-12-08T21:55:12.549Z,6.80
2022-12-08T21:57:40.984Z,6.61
2022-12-08T22:00:11.587Z,6.68
2022-12-08T22:02:39.577Z,6.70
2022-12-08T22:05:07.541Z,6.83
2022-12-08T22:07:38.600Z,6.84
2022-12-08T22:10:08.535Z,6.69
2022-12-08T22:12:37.223Z,6.67
2022-12-08T22:15:10.191Z,6.83
2022-12-08T22:17:40.159Z,6.68
2022-12-08T22:20:11.887Z,6.64
2022-12-08T22:22:42.826Z,6.67
2022-12-08T22:25:31.374Z,6.66
2022-12-08T22:28:05.464Z,6.83
2022-12-08T22:30:53.793Z,6.90
2022-12-08T22:33:37.493Z,6.70
2022-12-08T22:36:20.845Z,6.56
2022-12-08T22:38:54.793Z,6.54
2022-12-08T22:41:25.100Z,6.59
2022-12-08T22:44:27.465Z,6.94
2022-12-08T22:47:11.620Z,6.87
2022-12-08T22:49:50.272Z,6.73
2022-12-08T22:52:28.192Z,6.81
2022-12-08T22:55:27.104Z,6.67
2022-12-08T22:58:36.407Z,6.86
2022-12-08T23:01:31.894Z,6.68
2022-12-08T23:04:04.828Z,6.61
2022-12-08T23:07:01.357Z,6.57
2022-12-08T23:09:36.966Z,6.56
2022-12-08T23:12:11.127Z,6.58
2022-12-08T23:15:03.513Z,6.48
2022-12-08T23:20:44.787Z,6.34
2022-12-08T23:23:34.653Z,6.26
2022-12-08T23:26:27.958Z,6.17
2022-12-08T23:29:16.731Z,6.32
2022-12-08T23:32:30.293Z,6.29
2022-12-08T23:35:04.580Z,6.38
2022-12-08T23:38:01.220Z,6.38
2022-12-08T23:40:54.529Z,6.41
2022-12-08T23:43:55.462Z,6.32
2022-12-08T23:47:07.292Z,6.33
2022-12-08T23:50:33.428Z,6.36
2022-12-08T23:59:26.117Z,6.28
